New Paris, Indiana
Current Conditions -  °F | °C
As of 7:53 PM on Friday 19 Dec 2014 (Local Time) from KGSH Reporting Station
Overcast Overcast  
Wind Chill: 25°   Ceiling: 3300
Heat Index: 30°   Visibility: 10mi
Dew Point: 26°   Wind: 5mph
Humidity: 85%   Direction: 340°NNW
Pressure: 30.27"   Gusts: NA
Location:  41.5°N, 85.83°W
Report Text: KGSH 200053Z AUTO 34004KT 10SM OVC033 M01/M03 A3027 RMK AO2 SLP260 T10111033
Loading
Personal Weather Stations






























Interactive Weather Map New forecast layout! Learn more

10-Day Weather Forecast

Advertisements
Track Severe Weather on mobile